Time;durP1;ratioP1;P1;durP2;ratioP2;P2;SDS_P1;SDS_P2;PMS_P1;PMS_P2;Temp;Humidity;BMP_temperature;BMP_pressure;BME280_temperature;BME280_humidity;BME280_pressure;Samples;Min_cycle;Max_cycle;Signal;HPM_P1;HPM_P2
2022/07/09 00:00:31;;;;;;;5.97;3.15;;;15.30;99.90;;;;;;5030377;28;20841;-64
2022/07/09 00:02:58;;;;;;;6.53;3.40;;;15.40;99.90;;;;;;5015861;28;20710;-64
2022/07/09 00:05:25;;;;;;;8.32;3.53;;;15.30;99.90;;;;;;5026680;28;20212;-64
2022/07/09 00:07:52;;;;;;;8.20;3.80;;;15.20;99.90;;;;;;5013983;28;20233;-63
2022/07/09 00:10:18;;;;;;;5.22;3.50;;;15.40;99.90;;;;;;5023163;28;20219;-64
2022/07/09 00:12:45;;;;;;;5.75;3.55;;;15.40;99.90;;;;;;5044174;28;20208;-64
2022/07/09 00:15:14;;;;;;;12.98;4.25;;;15.30;99.90;;;;;;5039536;28;20565;-64
2022/07/09 00:17:40;;;;;;;11.48;3.97;;;15.40;99.90;;;;;;5030257;28;20209;-63
2022/07/09 00:20:09;;;;;;;7.20;3.72;;;15.00;99.90;;;;;;5006994;28;20212;-64
2022/07/09 00:22:36;;;;;;;6.60;3.30;;;15.40;99.90;;;;;;5011220;28;29056;-63
2022/07/09 00:25:03;;;;;;;6.60;3.35;;;15.40;99.90;;;;;;5030527;28;20231;-64
2022/07/09 00:27:30;;;;;;;5.30;3.45;;;15.30;99.90;;;;;;5031854;28;20208;-63
2022/07/09 00:29:56;;;;;;;5.93;3.83;;;15.30;99.90;;;;;;5025903;28;20204;-63
2022/07/09 00:32:25;;;;;;;5.63;3.22;;;15.10;99.90;;;;;;5009919;28;20204;-64
2022/07/09 00:34:51;;;;;;;6.97;3.10;;;15.30;99.90;;;;;;5041601;28;20198;-64
2022/07/09 00:37:18;;;;;;;4.07;3.38;;;;;;;;;;5013103;28;20213;-64
2022/07/09 00:39:45;;;;;;;11.45;3.25;;;15.30;99.90;;;;;;5044291;28;20208;-64
2022/07/09 00:42:12;;;;;;;5.97;3.53;;;15.30;99.90;;;;;;5042995;28;20267;-64
2022/07/09 00:44:39;;;;;;;4.68;3.13;;;15.50;99.90;;;;;;5039941;28;20655;-64
2022/07/09 00:47:08;;;;;;;8.27;3.20;;;15.30;99.90;;;;;;5014685;28;20205;-64
2022/07/09 00:49:40;;;;;;;6.45;3.50;;;15.50;99.90;;;;;;5041677;28;20228;-63
2022/07/09 00:52:08;;;;;;;5.05;3.60;;;16.20;99.90;;;;;;5026371;28;20205;-64
2022/07/09 00:54:36;;;;;;;6.80;3.42;;;15.30;99.90;;;;;;5030261;28;23417;-62
2022/07/09 00:57:06;;;;;;;6.82;3.15;;;15.30;99.90;;;;;;5047240;28;20197;-61
2022/07/09 00:59:33;;;;;;;6.57;4.15;;;15.20;99.90;;;;;;5036716;28;20228;-61
2022/07/09 01:02:01;;;;;;;9.05;3.40;;;15.10;99.90;;;;;;5027019;28;20618;-61
2022/07/09 01:04:28;;;;;;;9.57;3.58;;;15.10;99.90;;;;;;5017126;28;20239;-64
2022/07/09 01:06:57;;;;;;;5.00;3.90;;;15.10;99.90;;;;;;5046438;28;20198;-62
2022/07/09 01:09:24;;;;;;;8.93;3.97;;;17.30;99.90;;;;;;5002840;28;20680;-62
2022/07/09 01:11:51;;;;;;;5.97;3.80;;;15.10;99.90;;;;;;5036952;28;20204;-63
2022/07/09 01:14:18;;;;;;;6.82;3.80;;;15.00;99.90;;;;;;5035861;28;20192;-63
2022/07/09 01:16:45;;;;;;;5.68;3.75;;;15.00;99.90;;;;;;5035072;28;20679;-63
2022/07/09 01:19:12;;;;;;;3.55;3.22;;;14.90;99.90;;;;;;5017239;28;20209;-63
2022/07/09 01:21:40;;;;;;;12.30;3.83;;;15.00;99.90;;;;;;5039325;28;20327;-63
2022/07/09 01:24:07;;;;;;;6.22;4.70;;;15.00;99.90;;;;;;5000124;28;20212;-63
2022/07/09 01:26:35;;;;;;;7.55;4.00;;;15.10;99.90;;;;;;5038637;28;20204;-63
2022/07/09 01:29:02;;;;;;;7.38;4.28;;;15.10;99.90;;;;;;5013034;28;20302;-63
2022/07/09 01:31:29;;;;;;;6.32;4.20;;;15.30;99.90;;;;;;5022497;28;20209;-63
2022/07/09 01:33:56;;;;;;;8.75;4.47;;;15.10;99.90;;;;;;5018605;28;22508;-63
2022/07/09 01:36:23;;;;;;;6.22;4.00;;;15.20;99.90;;;;;;5029044;28;20201;-63
2022/07/09 01:38:51;;;;;;;8.88;4.07;;;15.20;99.90;;;;;;5007583;28;20210;-63
2022/07/09 01:41:18;;;;;;;14.13;4.95;;;15.30;99.90;;;;;;5041071;28;20233;-63
2022/07/09 01:43:44;;;;;;;8.20;4.68;;;15.30;99.90;;;;;;5019995;28;20219;-63
2022/07/09 01:46:11;;;;;;;6.68;4.60;;;15.40;99.90;;;;;;5043691;28;20207;-63
2022/07/09 01:48:42;;;;;;;7.10;4.72;;;15.30;99.90;;;;;;5024076;28;20582;-63
2022/07/09 01:51:09;;;;;;;8.43;4.78;;;15.40;99.90;;;;;;5026397;28;20429;-63
2022/07/09 01:53:36;;;;;;;9.55;4.60;;;15.40;99.90;;;;;;5026095;28;20283;-63
2022/07/09 01:56:07;;;;;;;6.60;4.85;;;15.40;99.90;;;;;;5009456;28;20220;-63
2022/07/09 01:58:34;;;;;;;10.27;4.72;;;15.40;99.90;;;;;;5030697;28;20255;-63
2022/07/09 02:01:01;;;;;;;8.35;5.10;;;16.80;99.90;;;;;;5037709;28;20232;-63
2022/07/09 02:03:28;;;;;;;6.40;4.55;;;15.40;99.90;;;;;;5027127;28;20705;-63
2022/07/09 02:05:55;;;;;;;7.85;4.88;;;15.20;99.90;;;;;;5027130;28;20233;-64
2022/07/09 02:08:23;;;;;;;13.82;4.50;;;15.40;99.90;;;;;;5039445;28;20203;-63
2022/07/09 02:10:50;;;;;;;11.63;5.07;;;15.50;99.90;;;;;;5014687;28;20848;-62
2022/07/09 02:13:19;;;;;;;8.00;4.40;;;15.50;99.90;;;;;;5027477;28;21003;-63
2022/07/09 02:15:46;;;;;;;13.13;4.70;;;15.60;99.90;;;;;;5033942;28;20300;-63
2022/07/09 02:18:13;;;;;;;6.45;4.25;;;15.90;99.90;;;;;;5024410;28;20228;-63
2022/07/09 02:20:40;;;;;;;9.27;4.72;;;15.60;99.90;;;;;;5027319;28;20204;-62
2022/07/09 02:23:07;;;;;;;8.75;4.47;;;15.40;99.90;;;;;;5021310;28;20241;-63
2022/07/09 02:25:34;;;;;;;8.68;4.38;;;15.60;99.90;;;;;;5012641;28;20213;-63
2022/07/09 02:28:02;;;;;;;15.27;4.68;;;15.70;99.90;;;;;;5040628;28;20229;-63
2022/07/09 02:30:30;;;;;;;7.57;4.22;;;15.70;99.90;;;;;;5026476;28;20266;-62
2022/07/09 02:32:57;;;;;;;8.75;4.07;;;15.80;99.90;;;;;;5037488;28;20252;-63
2022/07/09 02:35:23;;;;;;;8.82;4.38;;;15.00;99.90;;;;;;5028776;28;20613;-63
2022/07/09 02:37:50;;;;;;;7.35;3.95;;;15.80;99.90;;;;;;5022359;28;20701;-63
2022/07/09 02:40:17;;;;;;;11.10;4.50;;;15.80;99.90;;;;;;5003584;28;20691;-63
2022/07/09 02:42:44;;;;;;;8.02;4.13;;;15.80;99.90;;;;;;5041961;28;20231;-63
2022/07/09 02:45:11;;;;;;;7.43;3.85;;;15.80;99.90;;;;;;5027004;28;20207;-63
2022/07/09 02:47:39;;;;;;;6.95;4.25;;;15.70;99.90;;;;;;5043418;28;20201;-63
2022/07/09 02:50:07;;;;;;;5.90;3.35;;;15.80;99.90;;;;;;5028031;28;20197;-63
2022/07/09 02:52:34;;;;;;;8.13;4.10;;;16.00;99.90;;;;;;5022885;28;20231;-63
2022/07/09 02:55:01;;;;;;;10.70;4.00;;;15.80;99.90;;;;;;5011724;28;20212;-63
2022/07/09 02:57:27;;;;;;;5.97;3.53;;;15.90;99.90;;;;;;5044134;28;20232;-63
2022/07/09 02:59:54;;;;;;;11.40;3.83;;;16.10;99.90;;;;;;5021771;28;20679;-63
2022/07/09 03:02:21;;;;;;;6.05;3.38;;;15.90;99.90;;;;;;5024901;28;20590;-63
2022/07/09 03:04:49;;;;;;;5.72;3.65;;;16.10;99.90;;;;;;5037587;28;20201;-63
2022/07/09 03:07:16;;;;;;;5.35;3.78;;;17.50;99.90;;;;;;5009690;28;20939;-63
2022/07/09 03:09:43;;;;;;;5.00;3.53;;;15.90;99.90;;;;;;5036753;28;20212;-64
2022/07/09 03:12:10;;;;;;;6.57;3.85;;;16.00;99.90;;;;;;5012664;28;20208;-63
2022/07/09 03:14:37;;;;;;;6.40;4.05;;;15.90;99.90;;;;;;5025665;28;20213;-63
2022/07/09 03:17:04;;;;;;;7.30;3.75;;;16.10;99.90;;;;;;5024923;28;20204;-64
2022/07/09 03:19:33;;;;;;;5.07;3.30;;;15.90;99.90;;;;;;5039554;28;20207;-63
2022/07/09 03:22:02;;;;;;;5.88;3.30;;;15.70;99.90;;;;;;5022175;28;20240;-63
2022/07/09 03:24:28;;;;;;;10.18;4.03;;;15.80;99.90;;;;;;5043632;28;20239;-63
2022/07/09 03:26:55;;;;;;;5.97;4.22;;;15.90;99.90;;;;;;5011472;28;20227;-63
2022/07/09 03:29:22;;;;;;;11.85;3.92;;;16.10;99.90;;;;;;5005396;28;20608;-63
2022/07/09 03:31:49;;;;;;;7.07;3.45;;;15.90;99.90;;;;;;5035831;28;20204;-63
2022/07/09 03:34:16;;;;;;;10.65;4.03;;;16.80;99.90;;;;;;5013904;28;20196;-63
2022/07/09 03:36:42;;;;;;;9.95;4.30;;;15.90;99.90;;;;;;5029188;28;20201;-64
2022/07/09 03:39:11;;;;;;;9.85;4.47;;;15.90;99.90;;;;;;5024220;28;20347;-63
2022/07/09 03:41:38;;;;;;;6.97;4.10;;;;;;;;;;5029816;28;20204;-63
2022/07/09 03:44:05;;;;;;;11.15;4.00;;;15.70;99.90;;;;;;5032673;28;20660;-63
2022/07/09 03:46:32;;;;;;;11.55;4.03;;;15.60;99.90;;;;;;5042180;28;20201;-62
2022/07/09 03:48:59;;;;;;;5.22;3.88;;;15.80;99.90;;;;;;5032395;28;20266;-63
2022/07/09 03:51:26;;;;;;;7.15;4.40;;;15.90;99.90;;;;;;5044328;28;20203;-63
2022/07/09 03:53:53;;;;;;;10.57;4.45;;;15.80;99.90;;;;;;5032599;28;20205;-63
2022/07/09 03:56:21;;;;;;;7.22;4.20;;;15.80;99.90;;;;;;5047204;28;20205;-63
2022/07/09 03:58:48;;;;;;;7.50;5.03;;;;;;;;;;4997210;28;20208;-63
2022/07/09 04:01:15;;;;;;;11.68;5.03;;;15.90;99.90;;;;;;5043132;28;20235;-63
2022/07/09 04:03:42;;;;;;;7.47;4.85;;;15.90;99.90;;;;;;5032725;28;20227;-63
2022/07/09 04:06:09;;;;;;;10.95;5.03;;;14.30;99.90;;;;;;5041721;28;20262;-63
2022/07/09 04:08:36;;;;;;;7.82;5.10;;;16.00;99.90;;;;;;5027056;28;20305;-63
2022/07/09 04:11:03;;;;;;;11.50;5.72;;;16.00;99.90;;;;;;5035551;28;20226;-63
2022/07/09 04:13:31;;;;;;;7.68;5.05;;;16.00;99.90;;;;;;5014857;28;20216;-63
2022/07/09 04:15:58;;;;;;;10.77;5.47;;;15.80;99.90;;;;;;5039696;28;20219;-63
2022/07/09 04:18:24;;;;;;;6.28;4.75;;;16.10;99.90;;;;;;5028238;28;20220;-64
2022/07/09 04:20:52;;;;;;;8.70;5.28;;;15.80;99.90;;;;;;5029200;28;20750;-63
2022/07/09 04:23:19;;;;;;;13.60;5.45;;;16.00;99.90;;;;;;5050867;28;20228;-63
2022/07/09 04:25:47;;;;;;;10.60;5.38;;;16.20;99.90;;;;;;5027949;28;20204;-63
2022/07/09 04:28:14;;;;;;;8.63;5.53;;;16.50;99.90;;;;;;5010112;28;20319;-63
2022/07/09 04:30:43;;;;;;;7.88;5.65;;;16.30;99.90;;;;;;5033332;28;20217;-63
2022/07/09 04:33:10;;;;;;;9.60;5.97;;;16.40;99.90;;;;;;5027610;28;20354;-63
2022/07/09 04:35:37;;;;;;;11.98;5.85;;;16.30;99.90;;;;;;5028196;28;20797;-63
2022/07/09 04:38:05;;;;;;;10.20;5.80;;;16.40;99.90;;;;;;5033021;28;20873;-63
2022/07/09 04:40:31;;;;;;;8.65;5.93;;;16.20;99.90;;;;;;5028605;28;20211;-63
2022/07/09 04:42:58;;;;;;;7.10;5.18;;;16.40;99.90;;;;;;5041045;28;20220;-63
2022/07/09 04:45:25;;;;;;;14.13;5.43;;;16.50;99.90;;;;;;5017691;28;20227;-63
2022/07/09 04:47:53;;;;;;;9.38;5.50;;;19.00;99.90;;;;;;5010449;28;20212;-63
2022/07/09 04:50:20;;;;;;;7.70;5.20;;;16.60;99.90;;;;;;5027366;28;20201;-63
2022/07/09 04:52:47;;;;;;;12.35;5.72;;;16.60;99.90;;;;;;5026273;28;20669;-63
2022/07/09 04:55:15;;;;;;;10.15;5.78;;;16.60;99.90;;;;;;5035838;28;20227;-63
2022/07/09 04:57:42;;;;;;;7.57;5.82;;;16.70;99.90;;;;;;5029184;28;20239;-63
2022/07/09 05:00:10;;;;;;;7.82;5.00;;;16.70;99.90;;;;;;4995096;28;20232;-63
2022/07/09 05:02:38;;;;;;;7.38;5.45;;;16.70;99.90;;;;;;5038328;28;20232;-63
2022/07/09 05:05:07;;;;;;;12.90;5.45;;;16.70;99.90;;;;;;5016972;28;20220;-63
2022/07/09 05:07:34;;;;;;;11.43;5.53;;;17.10;99.90;;;;;;5042056;28;20209;-63
2022/07/09 05:10:02;;;;;;;9.88;5.13;;;16.90;99.90;;;;;;5027508;28;20228;-63
2022/07/09 05:12:29;;;;;;;8.95;5.13;;;16.80;99.90;;;;;;5010983;28;20236;-62
2022/07/09 05:14:56;;;;;;;8.43;4.88;;;16.80;99.90;;;;;;5012765;28;20233;-63
2022/07/09 05:17:23;;;;;;;11.18;4.88;;;16.90;99.90;;;;;;5039440;28;20206;-65
2022/07/09 05:19:50;;;;;;;7.20;5.28;;;17.00;99.90;;;;;;5014953;28;20232;-63
2022/07/09 05:22:18;;;;;;;12.95;5.35;;;17.00;99.90;;;;;;5040546;28;20329;-63
2022/07/09 05:24:45;;;;;;;11.88;6.13;;;17.10;99.90;;;;;;5027164;28;20853;-63
2022/07/09 05:27:12;;;;;;;9.23;5.68;;;17.00;99.90;;;;;;5029468;28;20204;-63
2022/07/09 05:29:39;;;;;;;13.07;6.10;;;17.20;99.90;;;;;;5021183;28;20221;-64
2022/07/09 05:32:07;;;;;;;10.77;5.40;;;17.10;99.90;;;;;;5013012;28;20205;-63
2022/07/09 05:34:33;;;;;;;8.57;5.50;;;17.20;99.90;;;;;;5037430;28;20569;-63
2022/07/09 05:37:00;;;;;;;11.70;6.28;;;17.20;99.90;;;;;;5040298;28;20282;-63
2022/07/09 05:39:29;;;;;;;13.75;6.18;;;17.30;99.90;;;;;;5027762;28;20220;-63
2022/07/09 05:41:56;;;;;;;9.20;5.93;;;17.40;99.90;;;;;;5010899;28;20217;-63
2022/07/09 05:44:23;;;;;;;9.70;6.43;;;17.40;99.90;;;;;;5026834;28;20244;-63
2022/07/09 05:46:49;;;;;;;11.13;6.22;;;17.40;99.90;;;;;;5008896;28;20795;-63
2022/07/09 05:49:16;;;;;;;15.30;6.03;;;17.40;99.90;;;;;;5043692;28;20201;-64
2022/07/09 05:51:43;;;;;;;12.05;6.97;;;18.00;99.90;;;;;;5022753;28;20205;-63
2022/07/09 05:54:10;;;;;;;17.17;6.97;;;17.50;99.90;;;;;;5041191;28;20205;-63
2022/07/09 05:56:38;;;;;;;11.10;6.38;;;17.50;99.90;;;;;;5036482;28;20205;-64
2022/07/09 05:59:05;;;;;;;16.70;7.78;;;17.50;99.90;;;;;;5016916;28;20211;-64
2022/07/09 06:01:32;;;;;;;10.90;6.20;;;17.80;99.90;;;;;;4985088;28;20232;-63
2022/07/09 06:03:59;;;;;;;8.48;6.43;;;17.60;99.90;;;;;;5020189;28;20225;-63
2022/07/09 06:06:26;;;;;;;10.07;6.75;;;17.70;99.90;;;;;;5024013;28;20225;-64
2022/07/09 06:08:53;;;;;;;13.95;6.30;;;17.70;99.90;;;;;;5031068;28;20197;-64
2022/07/09 06:11:20;;;;;;;9.15;6.30;;;17.70;99.90;;;;;;5040511;28;20204;-64
2022/07/09 06:13:48;;;;;;;8.95;6.10;;;17.70;99.90;;;;;;5006962;28;20205;-63
2022/07/09 06:16:15;;;;;;;13.75;6.40;;;17.70;99.90;;;;;;5011686;28;20920;-63
2022/07/09 06:18:42;;;;;;;12.88;6.03;;;17.80;99.90;;;;;;5030046;28;20205;-63
2022/07/09 06:21:09;;;;;;;13.88;6.75;;;;;;;;;;5032719;28;20197;-63
2022/07/09 06:23:37;;;;;;;17.13;6.72;;;17.70;99.90;;;;;;5029250;28;20351;-63
2022/07/09 06:26:04;;;;;;;12.57;6.40;;;;;;;;;;5019982;28;20216;-64
2022/07/09 06:28:31;;;;;;;9.10;5.88;;;17.70;99.90;;;;;;5019572;28;20205;-64
2022/07/09 06:31:00;;;;;;;9.43;5.53;;;;;;;;;;5000449;28;20872;-64
2022/07/09 06:33:27;;;;;;;15.07;5.53;;;18.00;99.90;;;;;;5005144;28;21458;-63
2022/07/09 06:35:54;;;;;;;9.93;5.25;;;18.00;99.90;;;;;;5030361;28;21087;-65
2022/07/09 06:38:21;;;;;;;9.32;5.30;;;18.00;99.90;;;;;;5015614;28;20708;-64
2022/07/09 06:40:47;;;;;;;11.48;5.65;;;17.90;99.90;;;;;;5009111;28;20204;-64
2022/07/09 06:43:14;;;;;;;9.50;4.75;;;18.00;99.90;;;;;;5021657;28;20226;-64
2022/07/09 06:45:41;;;;;;;11.55;4.75;;;18.00;99.90;;;;;;5018947;28;20206;-65
2022/07/09 06:48:09;;;;;;;9.38;4.78;;;18.60;99.90;;;;;;4996619;28;20209;-64
2022/07/09 06:50:36;;;;;;;6.57;4.50;;;17.60;99.90;;;;;;5015412;28;20204;-64
2022/07/09 06:53:04;;;;;;;7.03;4.63;;;17.80;99.90;;;;;;5017985;28;20710;-64
2022/07/09 06:55:31;;;;;;;8.90;4.55;;;17.90;99.90;;;;;;5032186;28;20676;-64
2022/07/09 06:57:59;;;;;;;9.25;4.85;;;18.00;99.90;;;;;;5023607;28;20380;-64
2022/07/09 07:00:26;;;;;;;4.95;3.88;;;16.50;99.90;;;;;;5015716;28;20239;-64
2022/07/09 07:02:53;;;;;;;7.53;4.35;;;18.10;99.90;;;;;;5012224;28;20991;-64
2022/07/09 07:05:21;;;;;;;6.22;3.88;;;18.00;99.90;;;;;;5020709;28;20940;-64
2022/07/09 07:07:48;;;;;;;7.30;3.78;;;;;;;;;;5018871;28;20707;-64
2022/07/09 07:10:15;;;;;;;7.80;3.90;;;18.00;99.90;;;;;;5006316;28;23034;-64
2022/07/09 07:12:42;;;;;;;8.57;4.30;;;18.00;99.90;;;;;;5011338;28;23504;-64
2022/07/09 07:15:09;;;;;;;6.72;3.60;;;18.30;99.90;;;;;;5002916;28;20583;-64
2022/07/09 07:17:36;;;;;;;7.10;3.47;;;18.10;99.90;;;;;;5020469;28;20236;-65
2022/07/09 07:20:03;;;;;;;9.10;3.65;;;;;;;;;;4997928;28;20209;-64
2022/07/09 07:22:32;;;;;;;4.03;3.15;;;18.20;99.90;;;;;;5017876;28;20220;-64
2022/07/09 07:24:58;;;;;;;5.25;2.83;;;18.30;99.90;;;;;;5004977;28;20240;-64
2022/07/09 07:27:25;;;;;;;5.25;2.85;;;18.40;99.90;;;;;;5038042;28;20197;-64
2022/07/09 07:29:52;;;;;;;6.10;3.00;;;18.40;99.90;;;;;;5013543;28;20202;-65
2022/07/09 07:32:19;;;;;;;8.82;3.30;;;18.20;99.90;;;;;;5009851;28;20946;-64
2022/07/09 07:34:45;;;;;;;5.78;2.97;;;18.30;99.90;;;;;;5008930;28;20300;-64
2022/07/09 07:37:12;;;;;;;4.53;2.83;;;18.20;99.90;;;;;;5004160;28;20205;-64
2022/07/09 07:39:40;;;;;;;8.55;2.78;;;17.50;99.90;;;;;;5022471;28;20381;-65
2022/07/09 07:42:07;;;;;;;2.95;2.58;;;18.30;99.90;;;;;;5011556;28;20201;-64
2022/07/09 07:44:34;;;;;;;4.53;2.42;;;18.20;99.90;;;;;;5026903;28;20236;-64
2022/07/09 07:47:01;;;;;;;7.65;3.00;;;18.30;99.90;;;;;;5020553;28;20211;-64
2022/07/09 07:49:28;;;;;;;8.25;2.60;;;18.50;99.90;;;;;;4990939;28;20196;-64
2022/07/09 07:51:54;;;;;;;3.95;2.45;;;18.40;99.90;;;;;;5023626;28;20231;-64
2022/07/09 07:54:21;;;;;;;5.22;2.33;;;18.50;99.90;;;;;;5006946;28;20594;-65
2022/07/09 07:56:50;;;;;;;5.25;2.33;;;18.60;99.90;;;;;;5006864;28;20229;-64
2022/07/09 07:59:17;;;;;;;4.78;2.58;;;18.60;99.90;;;;;;5025606;28;20229;-64
2022/07/09 08:01:44;;;;;;;5.07;2.38;;;18.60;99.90;;;;;;5013986;28;20236;-64
2022/07/09 08:04:11;;;;;;;5.55;2.15;;;;;;;;;;4979760;28;20232;-64
2022/07/09 08:06:38;;;;;;;8.00;2.85;;;18.60;99.90;;;;;;5018798;28;20243;-64
2022/07/09 08:09:05;;;;;;;3.95;2.10;;;18.60;99.90;;;;;;5038205;28;20225;-65
2022/07/09 08:11:32;;;;;;;3.13;2.03;;;18.60;99.90;;;;;;5011595;28;21210;-64
2022/07/09 08:14:00;;;;;;;3.83;2.00;;;18.70;99.90;;;;;;5033881;28;20201;-64
2022/07/09 08:16:27;;;;;;;4.03;1.80;;;18.60;99.90;;;;;;5032640;28;21039;-64
2022/07/09 08:18:54;;;;;;;3.40;2.05;;;18.60;99.90;;;;;;5023018;28;20244;-64
2022/07/09 08:21:20;;;;;;;4.95;1.80;;;18.70;99.90;;;;;;5017024;28;20688;-63
2022/07/09 08:23:53;;;;;;;7.63;1.88;;;18.60;99.90;;;;;;5040301;28;20225;-64
2022/07/09 08:26:22;;;;;;;6.53;1.92;;;18.70;99.90;;;;;;5027638;28;20727;-64
2022/07/09 08:28:49;;;;;;;4.35;1.88;;;20.30;99.90;;;;;;5035193;28;20196;-64
2022/07/09 08:31:17;;;;;;;2.45;1.30;;;18.80;99.90;;;;;;5042594;28;20204;-64
2022/07/09 08:33:45;;;;;;;3.65;2.00;;;18.80;99.90;;;;;;5023781;28;20213;-64
2022/07/09 08:36:12;;;;;;;5.97;1.67;;;19.00;99.90;;;;;;5022692;28;20320;-64
2022/07/09 08:38:39;;;;;;;3.00;1.63;;;19.00;99.90;;;;;;5040822;28;20205;-63
2022/07/09 08:41:06;;;;;;;3.45;1.98;;;19.10;99.90;;;;;;5044035;28;20204;-63
2022/07/09 08:43:34;;;;;;;4.18;1.80;;;19.20;99.90;;;;;;5031694;28;20231;-64
2022/07/09 08:46:01;;;;;;;6.95;1.58;;;19.20;99.90;;;;;;5041163;28;20204;-64
2022/07/09 08:48:33;;;;;;;2.55;1.45;;;19.30;99.90;;;;;;5021134;28;21804;-64
2022/07/09 08:51:00;;;;;;;2.88;1.38;;;19.40;99.90;;;;;;5007748;28;20298;-64
2022/07/09 08:53:29;;;;;;;1.65;1.30;;;19.40;99.90;;;;;;5038650;28;20200;-64
2022/07/09 08:55:56;;;;;;;4.57;1.42;;;19.10;99.90;;;;;;5046457;28;21146;-63
2022/07/09 08:58:23;;;;;;;1.75;1.40;;;19.10;99.90;;;;;;5018522;28;20205;-63
2022/07/09 09:00:50;;;;;;;1.48;1.38;;;18.80;99.90;;;;;;5041462;28;20225;-63
2022/07/09 09:03:17;;;;;;;1.30;1.20;;;18.90;99.90;;;;;;5033542;28;20267;-63
2022/07/09 09:05:46;;;;;;;2.85;1.20;;;19.00;99.90;;;;;;5031220;28;21006;-63
2022/07/09 09:08:21;;;;;;;1.85;1.23;;;19.00;99.90;;;;;;5016551;28;20734;-63
2022/07/09 09:10:48;;;;;;;2.40;1.33;;;19.10;99.90;;;;;;5039362;28;20201;-63
2022/07/09 09:13:16;;;;;;;5.82;1.25;;;19.10;99.90;;;;;;5034375;28;20209;-63
2022/07/09 09:15:43;;;;;;;3.95;1.42;;;19.20;99.90;;;;;;5024902;28;20212;-63
2022/07/09 09:18:11;;;;;;;2.10;1.30;;;19.30;99.90;;;;;;5043900;28;20196;-63
2022/07/09 09:20:39;;;;;;;1.20;1.10;;;19.50;99.90;;;;;;5015170;28;20205;-63
2022/07/09 09:23:10;;;;;;;2.65;1.40;;;19.50;99.90;;;;;;5004298;28;20810;-63
2022/07/09 09:25:38;;;;;;;2.83;1.40;;;19.30;99.90;;;;;;5025615;28;20260;-63
2022/07/09 09:28:05;;;;;;;1.85;1.13;;;18.30;99.90;;;;;;5021817;28;20730;-63
2022/07/09 09:30:32;;;;;;;2.45;1.30;;;19.30;99.90;;;;;;5000267;28;20248;-63
2022/07/09 09:33:00;;;;;;;4.15;1.42;;;19.40;99.90;;;;;;5015105;28;20236;-63
2022/07/09 09:35:28;;;;;;;2.05;1.25;;;19.20;99.90;;;;;;5000124;28;20229;-63
2022/07/09 09:37:55;;;;;;;3.17;1.27;;;18.70;99.90;;;;;;5000087;28;20233;-63
2022/07/09 09:40:24;;;;;;;7.00;1.35;;;19.10;99.90;;;;;;5028110;28;20386;-63
2022/07/09 09:42:52;;;;;;;3.58;1.80;;;18.90;99.90;;;;;;5028943;28;20201;-63
2022/07/09 09:45:19;;;;;;;1.98;1.33;;;19.20;99.90;;;;;;5003132;28;20607;-64
2022/07/09 09:47:48;;;;;;;1.63;1.13;;;19.50;99.90;;;;;;5019988;28;20220;-63
2022/07/09 09:50:18;;;;;;;3.70;1.40;;;19.40;99.90;;;;;;5016452;28;20865;-63
2022/07/09 09:52:46;;;;;;;2.15;1.30;;;19.30;99.90;;;;;;5026278;28;20207;-63
2022/07/09 09:55:14;;;;;;;3.63;1.60;;;19.40;99.90;;;;;;4990890;28;20208;-64
2022/07/09 09:57:43;;;;;;;1.15;1.02;;;19.20;99.90;;;;;;5036947;28;20278;-63
2022/07/09 10:00:11;;;;;;;2.20;1.38;;;19.20;99.90;;;;;;5021655;28;20224;-63
2022/07/09 10:02:39;;;;;;;1.30;1.20;;;19.30;99.90;;;;;;5029221;28;20754;-63
2022/07/09 10:05:07;;;;;;;1.88;1.30;;;19.30;99.90;;;;;;5027350;28;21012;-63
2022/07/09 10:07:34;;;;;;;2.67;1.20;;;19.30;99.90;;;;;;5007755;28;20209;-63
2022/07/09 10:10:01;;;;;;;2.38;1.15;;;19.40;99.90;;;;;;5002899;28;20205;-63
2022/07/09 10:12:28;;;;;;;3.53;1.30;;;19.20;99.90;;;;;;5028049;28;20701;-62
2022/07/09 10:14:57;;;;;;;2.20;1.05;;;19.30;99.90;;;;;;5003501;28;20285;-63
2022/07/09 10:17:26;;;;;;;2.70;1.20;;;19.30;99.90;;;;;;5032267;28;20774;-65
2022/07/09 10:19:54;;;;;;;4.47;1.45;;;19.20;99.90;;;;;;5012822;28;20217;-64
2022/07/09 10:22:21;;;;;;;4.32;1.38;;;19.40;99.90;;;;;;5014894;28;20213;-64
2022/07/09 10:24:52;;;;;;;3.15;1.42;;;19.30;99.90;;;;;;4995007;28;20649;-62
2022/07/09 10:27:19;;;;;;;2.45;1.27;;;19.60;99.90;;;;;;5037682;28;20275;-63
2022/07/09 10:29:58;;;;;;;5.03;1.52;;;19.50;99.90;;;;;;5027250;28;21837;-63
2022/07/09 10:32:28;;;;;;;4.57;1.60;;;19.60;99.90;;;;;;5024100;28;20298;-63
2022/07/09 10:34:58;;;;;;;8.95;2.08;;;19.50;99.90;;;;;;5018631;28;20209;-62
2022/07/09 10:37:36;;;;;;;10.00;2.35;;;19.40;99.90;;;;;;5003585;28;22269;-63
2022/07/09 10:40:11;;;;;;;6.95;2.05;;;19.10;99.90;;;;;;4992557;28;20220;-63
2022/07/09 10:42:38;;;;;;;6.50;2.42;;;;;;;;;;5035775;28;20197;-63
2022/07/09 10:45:22;;;;;;;2.03;1.58;;;18.90;99.90;;;;;;5025910;28;20264;-63
2022/07/09 10:47:53;;;;;;;3.00;1.83;;;19.20;99.90;;;;;;5019925;28;20676;-63
2022/07/09 10:50:20;;;;;;;4.95;2.03;;;19.30;99.90;;;;;;5024373;28;20431;-63
2022/07/09 10:52:47;;;;;;;2.90;1.60;;;19.60;99.90;;;;;;5004831;28;20224;-63
2022/07/09 10:55:17;;;;;;;11.10;1.75;;;19.50;99.90;;;;;;5025067;28;20252;-63
2022/07/09 10:57:44;;;;;;;2.63;1.33;;;19.50;99.90;;;;;;5002516;28;20201;-63
2022/07/09 11:00:15;;;;;;;3.30;1.55;;;19.40;99.90;;;;;;5010910;28;20240;-64
2022/07/09 11:02:56;;;;;;;5.70;1.73;;;19.20;99.90;;;;;;5024159;28;20965;-63
2022/07/09 11:05:24;;;;;;;2.42;1.30;;;19.00;99.90;;;;;;5021441;28;20229;-63
2022/07/09 11:07:59;;;;;;;1.88;1.40;;;19.20;99.90;;;;;;5012159;28;22949;-63
2022/07/09 11:10:27;;;;;;;8.88;1.92;;;19.30;99.90;;;;;;5028275;28;20205;-63
2022/07/09 11:12:55;;;;;;;5.70;1.83;;;;;;;;;;5008689;28;20221;-62
2022/07/09 11:15:23;;;;;;;4.35;1.52;;;19.20;99.90;;;;;;5018265;28;20955;-63
2022/07/09 11:17:58;;;;;;;4.85;1.70;;;19.00;99.90;;;;;;5028072;28;20205;-63
2022/07/09 11:20:26;;;;;;;6.15;1.50;;;;;;;;;;5032657;28;20201;-63
2022/07/09 11:22:56;;;;;;;3.72;1.20;;;;;;;;;;5028451;28;20200;-64
2022/07/09 11:25:24;;;;;;;5.03;1.58;;;18.50;99.90;;;;;;5027172;28;20288;-63
2022/07/09 11:27:51;;;;;;;2.85;1.60;;;;;;;;;;4993033;28;20241;-64
2022/07/09 11:30:18;;;;;;;7.53;1.90;;;18.40;99.90;;;;;;5029571;28;20208;-63
2022/07/09 11:32:45;;;;;;;9.52;1.98;;;18.30;99.90;;;;;;5024209;28;20227;-63
2022/07/09 11:35:25;;;;;;;6.82;2.10;;;18.70;99.90;;;;;;5020898;28;20228;-63
2022/07/09 11:37:52;;;;;;;5.15;2.08;;;18.70;99.90;;;;;;5025171;28;20228;-64
2022/07/09 11:40:20;;;;;;;5.55;2.22;;;19.00;99.90;;;;;;5026055;28;20210;-64
2022/07/09 11:42:47;;;;;;;5.80;2.13;;;18.30;99.90;;;;;;4997694;28;20248;-64
2022/07/09 11:45:14;;;;;;;4.82;1.80;;;18.50;99.90;;;;;;5018837;28;20641;-64
2022/07/09 11:47:41;;;;;;;4.68;1.92;;;18.70;99.90;;;;;;5022911;28;20196;-63
2022/07/09 11:50:10;;;;;;;3.65;1.35;;;18.60;99.90;;;;;;5015054;28;20845;-63
2022/07/09 11:52:44;;;;;;;5.05;1.38;;;18.60;99.90;;;;;;5035767;28;20306;-63
2022/07/09 11:55:12;;;;;;;5.47;2.33;;;18.70;99.90;;;;;;5013337;28;20277;-64
2022/07/09 11:57:39;;;;;;;6.47;1.52;;;18.60;99.90;;;;;;5017002;28;20212;-63
2022/07/09 12:00:08;;;;;;;8.02;1.85;;;18.60;99.90;;;;;;5003807;28;20244;-63
2022/07/09 12:02:36;;;;;;;4.15;1.80;;;18.60;99.90;;;;;;5015740;28;20220;-62
2022/07/09 12:05:06;;;;;;;7.20;1.73;;;19.00;99.90;;;;;;5049010;28;20945;-63
2022/07/09 12:07:34;;;;;;;4.65;1.67;;;18.80;99.90;;;;;;5053094;28;20804;-62
2022/07/09 12:10:04;;;;;;;5.63;1.73;;;18.30;99.90;;;;;;5036722;28;20219;-62
2022/07/09 12:12:32;;;;;;;6.70;1.95;;;18.50;99.90;;;;;;5046544;28;21089;-62
2022/07/09 12:14:59;;;;;;;11.27;3.33;;;;;;;;;;5022363;28;20298;-63
2022/07/09 12:17:27;;;;;;;6.13;1.85;;;18.50;99.90;;;;;;5037345;28;24044;-63
2022/07/09 12:19:54;;;;;;;6.47;1.70;;;18.40;99.90;;;;;;5039776;28;20232;-63
2022/07/09 12:22:23;;;;;;;3.40;1.48;;;18.40;99.90;;;;;;5047987;28;20223;-64
2022/07/09 12:24:50;;;;;;;5.75;1.67;;;18.40;99.90;;;;;;5038473;28;20374;-63
2022/07/09 12:27:19;;;;;;;9.68;1.88;;;18.30;99.90;;;;;;5049578;28;20205;-64
2022/07/09 12:29:46;;;;;;;5.45;1.77;;;17.90;99.90;;;;;;5025100;28;20338;-63
2022/07/09 12:32:13;;;;;;;10.82;1.80;;;20.00;99.90;;;;;;5035726;28;20202;-63
2022/07/09 12:34:40;;;;;;;6.03;1.95;;;18.40;99.90;;;;;;5040387;28;20247;-63
2022/07/09 12:37:07;;;;;;;6.68;1.95;;;18.00;99.90;;;;;;5047279;28;20198;-63
2022/07/09 12:39:34;;;;;;;4.63;1.85;;;16.20;99.90;;;;;;5023997;28;20189;-63
2022/07/09 12:42:01;;;;;;;5.78;1.50;;;18.30;99.90;;;;;;5048473;28;20197;-63
2022/07/09 12:44:29;;;;;;;6.90;1.27;;;18.10;99.90;;;;;;5010908;28;20745;-63
2022/07/09 12:46:56;;;;;;;5.13;1.60;;;;;;;;;;5045463;28;20208;-63
2022/07/09 12:49:23;;;;;;;4.78;1.67;;;18.00;99.90;;;;;;5010828;28;20795;-63
2022/07/09 12:51:50;;;;;;;4.85;1.63;;;18.10;99.90;;;;;;5046687;28;20581;-63